Time;durP1;ratioP1;P1;durP2;ratioP2;P2;SDS_P1;SDS_P2;PMS_P1;PMS_P2;Temp;Humidity;BMP_temperature;BMP_pressure;BME280_temperature;BME280_humidity;BME280_pressure;Samples;Min_cycle;Max_cycle;Signal;HPM_P1;HPM_P2
2023/07/26 00:01:41;;;;;;;0.00;0.00;;;14.50;99.90;;;;;;5091039;28;20251;-66
2023/07/26 00:04:07;;;;;;;0.00;0.00;;;14.60;99.90;;;;;;5089607;28;20176;-66
2023/07/26 00:06:32;;;;;;;0.00;0.00;;;14.60;99.90;;;;;;5089100;28;20205;-66
2023/07/26 00:08:58;;;;;;;0.00;0.00;;;14.60;99.90;;;;;;5086627;28;20611;-66
2023/07/26 00:11:23;;;;;;;0.30;0.30;;;14.50;99.90;;;;;;5091188;28;20281;-66
2023/07/26 00:13:49;;;;;;;0.00;0.00;;;14.50;99.90;;;;;;5090709;28;20298;-66
2023/07/26 00:16:14;;;;;;;0.08;0.08;;;14.60;99.90;;;;;;5090940;28;20736;-66
2023/07/26 00:18:40;;;;;;;0.13;0.13;;;14.60;99.90;;;;;;5090520;28;20184;-66
2023/07/26 00:21:08;;;;;;;0.00;0.00;;;14.50;99.90;;;;;;5090715;28;20180;-66
2023/07/26 00:23:34;;;;;;;0.08;0.08;;;14.50;99.90;;;;;;5089848;28;20177;-66
2023/07/26 00:25:59;;;;;;;0.00;0.00;;;14.50;99.90;;;;;;5089841;28;20695;-66
2023/07/26 00:28:25;;;;;;;0.10;0.10;;;14.50;99.90;;;;;;5089690;28;20228;-65
2023/07/26 00:30:50;;;;;;;0.00;0.00;;;14.60;99.90;;;;;;5091166;28;20172;-66
2023/07/26 00:33:16;;;;;;;0.00;0.00;;;14.60;99.90;;;;;;5090932;28;20564;-65
2023/07/26 00:35:43;;;;;;;0.00;0.00;;;14.60;99.90;;;;;;5091058;28;20531;-66
2023/07/26 00:38:09;;;;;;;0.10;0.10;;;14.60;99.90;;;;;;5089502;28;20180;-65
2023/07/26 00:40:36;;;;;;;0.00;0.00;;;14.60;99.90;;;;;;5089236;28;20523;-65
2023/07/26 00:43:02;;;;;;;0.00;0.00;;;14.60;99.90;;;;;;5090116;28;20168;-65
2023/07/26 00:45:30;;;;;;;0.00;0.00;;;14.60;99.90;;;;;;5090626;28;20184;-66
2023/07/26 00:47:56;;;;;;;0.00;0.00;;;14.60;99.90;;;;;;5090722;28;20168;-65
2023/07/26 00:50:23;;;;;;;0.00;0.00;;;14.60;99.90;;;;;;5089750;28;20249;-66
2023/07/26 00:52:49;;;;;;;0.03;0.03;;;14.60;99.90;;;;;;5089870;28;20212;-66
2023/07/26 00:55:15;;;;;;;0.00;0.00;;;14.60;99.90;;;;;;5090270;28;20194;-65
2023/07/26 00:57:42;;;;;;;0.10;0.10;;;14.60;99.90;;;;;;5089622;28;20176;-65
2023/07/26 01:00:08;;;;;;;0.00;0.00;;;14.50;99.90;;;;;;5089900;28;20172;-65
2023/07/26 01:02:34;;;;;;;0.00;0.00;;;14.50;99.90;;;;;;5089368;28;20639;-65
2023/07/26 01:05:00;;;;;;;0.20;0.20;;;14.50;99.90;;;;;;5090196;28;20168;-65
2023/07/26 01:07:49;;;;;;;0.10;0.10;;;14.50;99.90;;;;;;5089982;28;20195;-65
2023/07/26 01:10:28;;;;;;;0.20;0.20;;;14.50;99.90;;;;;;5084687;28;20216;-66
2023/07/26 01:13:12;;;;;;;0.28;0.28;;;14.50;99.90;;;;;;5074723;28;20228;-65
2023/07/26 01:15:41;;;;;;;0.00;0.00;;;14.50;99.90;;;;;;5090492;28;20206;-65
2023/07/26 01:18:08;;;;;;;0.00;0.00;;;14.50;99.90;;;;;;5090315;28;20180;-65
2023/07/26 01:20:33;;;;;;;0.20;0.20;;;14.50;99.90;;;;;;5089706;28;20187;-65
2023/07/26 01:22:59;;;;;;;0.00;0.00;;;14.40;99.90;;;;;;5090101;28;20177;-65
2023/07/26 01:25:24;;;;;;;0.03;0.03;;;14.40;99.90;;;;;;5089124;28;20794;-66
2023/07/26 01:27:50;;;;;;;0.00;0.00;;;14.30;99.90;;;;;;5090196;28;20216;-65
2023/07/26 01:30:16;;;;;;;0.00;0.00;;;14.30;99.90;;;;;;5091120;28;20643;-66
2023/07/26 01:32:43;;;;;;;0.00;0.00;;;14.30;99.90;;;;;;5093971;28;20211;-65
2023/07/26 01:35:09;;;;;;;0.00;0.00;;;14.20;99.90;;;;;;5092728;28;20245;-65
2023/07/26 01:37:36;;;;;;;0.00;0.00;;;14.20;99.90;;;;;;5093916;28;20172;-65
2023/07/26 01:40:04;;;;;;;0.00;0.00;;;14.20;99.90;;;;;;5093881;28;20203;-66
2023/07/26 01:42:31;;;;;;;0.00;0.00;;;14.10;99.90;;;;;;5093754;28;20183;-65
2023/07/26 01:45:02;;;;;;;0.00;0.00;;;14.00;99.90;;;;;;5093971;28;20225;-66
2023/07/26 01:47:27;;;;;;;0.00;0.00;;;13.90;99.90;;;;;;5093831;28;20187;-65
2023/07/26 01:49:53;;;;;;;0.00;0.00;;;13.80;99.90;;;;;;5093816;28;20165;-65
2023/07/26 01:52:18;;;;;;;0.00;0.00;;;13.80;99.90;;;;;;5093458;28;20272;-65
2023/07/26 01:54:44;;;;;;;0.03;0.03;;;13.80;99.90;;;;;;5092547;28;20570;-65
2023/07/26 01:57:09;;;;;;;0.00;0.00;;;13.70;99.90;;;;;;5093585;28;20184;-65
2023/07/26 01:59:35;;;;;;;0.10;0.10;;;13.70;99.90;;;;;;5093458;28;20254;-68
2023/07/26 02:02:00;;;;;;;0.00;0.00;;;13.70;99.90;;;;;;5093526;28;20202;-65
2023/07/26 02:04:26;;;;;;;0.20;0.20;;;13.70;99.90;;;;;;5093190;28;20653;-65
2023/07/26 02:06:52;;;;;;;0.00;0.00;;;13.70;99.90;;;;;;5092851;28;20183;-65
2023/07/26 02:09:18;;;;;;;0.20;0.20;;;13.60;99.90;;;;;;5092166;28;20180;-65
2023/07/26 02:11:43;;;;;;;0.00;0.00;;;13.60;99.90;;;;;;5093124;28;20180;-65
2023/07/26 02:14:09;;;;;;;0.10;0.10;;;13.60;99.90;;;;;;5092538;28;20215;-65
2023/07/26 02:16:34;;;;;;;0.00;0.00;;;13.50;99.90;;;;;;5092662;28;20183;-65
2023/07/26 02:19:00;;;;;;;0.00;0.00;;;13.50;99.90;;;;;;5092483;28;20176;-65
2023/07/26 02:21:25;;;;;;;0.00;0.00;;;13.50;99.90;;;;;;5091991;28;20176;-65
2023/07/26 02:23:51;;;;;;;0.00;0.00;;;13.50;99.90;;;;;;5092784;28;20164;-65
2023/07/26 02:26:16;;;;;;;0.00;0.00;;;13.50;99.90;;;;;;5092953;28;20180;-65
2023/07/26 02:28:42;;;;;;;0.00;0.00;;;13.50;99.90;;;;;;5092444;28;20261;-65
2023/07/26 02:31:07;;;;;;;1.45;0.85;;;13.50;99.90;;;;;;5092485;28;20554;-65
2023/07/26 02:33:33;;;;;;;0.00;0.00;;;13.50;99.90;;;;;;5092438;28;20204;-65
2023/07/26 02:35:59;;;;;;;0.00;0.00;;;13.50;99.90;;;;;;5092515;28;20179;-65
2023/07/26 02:38:25;;;;;;;0.00;0.00;;;13.40;99.90;;;;;;5092288;28;20184;-65
2023/07/26 02:40:51;;;;;;;0.00;0.00;;;13.40;99.90;;;;;;5092327;28;20171;-65
2023/07/26 02:43:16;;;;;;;0.00;0.00;;;13.30;99.90;;;;;;5091768;28;20176;-65
2023/07/26 02:45:43;;;;;;;0.00;0.00;;;13.30;99.90;;;;;;5092583;28;20157;-65
2023/07/26 02:48:08;;;;;;;0.00;0.00;;;13.30;99.90;;;;;;5092502;28;20212;-65
2023/07/26 02:50:34;;;;;;;0.00;0.00;;;13.30;99.90;;;;;;5092543;28;20640;-65
2023/07/26 02:52:59;;;;;;;0.00;0.00;;;13.30;99.90;;;;;;5092410;28;20212;-65
2023/07/26 02:55:25;;;;;;;0.20;0.20;;;13.30;99.90;;;;;;5091134;28;20191;-65
2023/07/26 02:57:51;;;;;;;0.10;0.10;;;13.30;99.90;;;;;;5092286;28;20182;-65
2023/07/26 03:00:16;;;;;;;0.00;0.00;;;13.30;99.90;;;;;;5091893;28;20176;-65
2023/07/26 03:02:42;;;;;;;0.00;0.00;;;13.30;99.90;;;;;;5092344;28;20164;-65
2023/07/26 03:05:08;;;;;;;0.00;0.00;;;13.30;99.90;;;;;;5092130;28;20243;-65
2023/07/26 03:07:34;;;;;;;0.00;0.00;;;13.30;99.90;;;;;;5091964;28;20186;-65
2023/07/26 03:10:00;;;;;;;0.00;0.00;;;13.30;99.90;;;;;;5092070;28;20210;-65
2023/07/26 03:12:25;;;;;;;0.00;0.00;;;13.30;99.90;;;;;;5091401;28;20265;-65
2023/07/26 03:14:51;;;;;;;0.00;0.00;;;13.30;99.90;;;;;;5091754;28;20176;-65
2023/07/26 03:17:17;;;;;;;0.00;0.00;;;13.30;99.90;;;;;;5091638;28;20195;-65
2023/07/26 03:19:42;;;;;;;0.00;0.00;;;13.30;99.90;;;;;;5090465;28;20188;-65
2023/07/26 03:22:08;;;;;;;0.10;0.10;;;13.30;99.90;;;;;;5090498;28;20592;-65
2023/07/26 03:24:33;;;;;;;0.10;0.10;;;13.30;99.90;;;;;;5090950;28;20212;-65
2023/07/26 03:26:59;;;;;;;0.00;0.00;;;13.30;99.90;;;;;;5091069;28;20227;-65
2023/07/26 03:29:24;;;;;;;0.00;0.00;;;13.30;99.90;;;;;;5084631;28;20196;-65
2023/07/26 03:31:50;;;;;;;0.00;0.00;;;13.20;99.90;;;;;;5089858;28;20616;-65
2023/07/26 03:34:15;;;;;;;0.00;0.00;;;13.20;99.90;;;;;;5091301;28;20667;-65
2023/07/26 03:36:41;;;;;;;0.00;0.00;;;13.20;99.90;;;;;;5090173;28;20229;-64
2023/07/26 03:39:06;;;;;;;0.00;0.00;;;13.20;99.90;;;;;;5090686;28;20176;-64
2023/07/26 03:41:32;;;;;;;0.00;0.00;;;13.10;99.90;;;;;;5090414;28;20208;-64
2023/07/26 03:43:58;;;;;;;0.00;0.00;;;13.10;99.90;;;;;;5090948;28;20191;-64
2023/07/26 03:46:23;;;;;;;0.00;0.00;;;13.00;99.90;;;;;;5091102;28;20184;-65
2023/07/26 03:48:49;;;;;;;0.00;0.00;;;13.00;99.90;;;;;;5090676;28;20176;-64
2023/07/26 03:51:14;;;;;;;0.00;0.00;;;13.00;99.90;;;;;;5091181;28;20537;-64
2023/07/26 03:53:40;;;;;;;0.00;0.00;;;13.00;99.90;;;;;;5092478;28;20212;-66
2023/07/26 03:56:05;;;;;;;0.00;0.00;;;13.10;99.90;;;;;;5090324;28;20635;-64
2023/07/26 03:58:31;;;;;;;0.00;0.00;;;13.10;99.90;;;;;;5089968;28;20589;-64
2023/07/26 04:00:57;;;;;;;0.00;0.00;;;13.10;99.90;;;;;;5091217;28;20248;-64
2023/07/26 04:03:22;;;;;;;0.00;0.00;;;13.10;99.90;;;;;;5091146;28;20639;-63
2023/07/26 04:05:48;;;;;;;0.00;0.00;;;13.10;99.90;;;;;;5090570;28;20256;-65
2023/07/26 04:08:13;;;;;;;0.00;0.00;;;13.10;99.90;;;;;;5089754;28;20207;-64
2023/07/26 04:10:39;;;;;;;0.00;0.00;;;13.10;99.90;;;;;;5091084;28;20247;-64
2023/07/26 04:13:04;;;;;;;0.03;0.03;;;13.20;99.90;;;;;;5090871;28;20298;-64
2023/07/26 04:15:30;;;;;;;0.00;0.00;;;13.20;99.90;;;;;;5090926;28;20176;-64
2023/07/26 04:17:56;;;;;;;0.00;0.00;;;13.20;99.90;;;;;;5090690;28;20646;-64
2023/07/26 04:20:22;;;;;;;0.20;0.20;;;13.20;99.90;;;;;;5090415;28;20176;-62
2023/07/26 04:22:47;;;;;;;0.00;0.00;;;13.30;99.90;;;;;;5090568;28;20657;-65
2023/07/26 04:25:13;;;;;;;0.00;0.00;;;13.30;99.90;;;;;;5090494;28;20164;-64
2023/07/26 04:27:38;;;;;;;0.00;0.00;;;13.30;99.90;;;;;;5090321;28;20219;-64
2023/07/26 04:30:05;;;;;;;0.05;0.05;;;13.30;99.90;;;;;;5087514;28;20183;-64
2023/07/26 04:32:31;;;;;;;0.00;0.00;;;13.30;99.90;;;;;;5090365;28;20203;-63
2023/07/26 04:34:56;;;;;;;0.00;0.00;;;13.30;99.90;;;;;;5090462;28;20229;-65
2023/07/26 04:37:22;;;;;;;0.00;0.00;;;13.30;99.90;;;;;;5089967;28;20179;-65
2023/07/26 04:39:48;;;;;;;0.00;0.00;;;13.30;99.90;;;;;;5089971;28;20176;-65
2023/07/26 04:42:13;;;;;;;0.00;0.00;;;13.40;99.90;;;;;;5090388;28;20175;-65
2023/07/26 04:44:39;;;;;;;0.00;0.00;;;13.40;99.90;;;;;;5090676;28;20207;-65
2023/07/26 04:47:05;;;;;;;0.00;0.00;;;13.40;99.90;;;;;;5090423;28;20639;-65
2023/07/26 04:49:32;;;;;;;0.00;0.00;;;13.50;99.90;;;;;;5090468;28;20176;-65
2023/07/26 04:51:57;;;;;;;0.00;0.00;;;13.50;99.90;;;;;;5090486;28;20180;-65
2023/07/26 04:54:23;;;;;;;0.00;0.00;;;13.60;99.90;;;;;;5090810;28;20260;-65
2023/07/26 04:56:48;;;;;;;0.00;0.00;;;13.60;99.90;;;;;;5090802;28;20176;-65
2023/07/26 04:59:15;;;;;;;0.00;0.00;;;13.60;99.90;;;;;;5090394;28;20180;-65
2023/07/26 05:01:40;;;;;;;0.00;0.00;;;13.60;99.90;;;;;;5072486;28;20598;-65
2023/07/26 05:04:06;;;;;;;0.00;0.00;;;13.70;99.90;;;;;;5090086;28;20262;-65
2023/07/26 05:06:32;;;;;;;0.08;0.08;;;13.70;99.90;;;;;;5093366;28;20535;-64
2023/07/26 05:08:59;;;;;;;0.00;0.00;;;13.70;99.90;;;;;;5094046;28;20172;-65
2023/07/26 05:11:25;;;;;;;0.10;0.10;;;13.80;99.90;;;;;;5094175;28;20218;-65
2023/07/26 05:13:51;;;;;;;0.00;0.00;;;13.90;99.90;;;;;;5094092;28;20220;-65
2023/07/26 05:16:16;;;;;;;0.20;0.20;;;14.00;99.90;;;;;;5093703;28;20176;-65
2023/07/26 05:18:42;;;;;;;0.00;0.00;;;14.10;99.90;;;;;;5093973;28;20181;-65
2023/07/26 05:21:07;;;;;;;0.00;0.00;;;14.10;99.90;;;;;;5092396;28;20183;-65
2023/07/26 05:23:33;;;;;;;0.10;0.10;;;14.20;99.90;;;;;;5093494;28;20234;-65
2023/07/26 05:25:58;;;;;;;0.10;0.10;;;14.30;99.90;;;;;;5092396;28;20656;-65
2023/07/26 05:28:24;;;;;;;0.00;0.00;;;14.40;99.90;;;;;;5093475;28;20536;-65
2023/07/26 05:30:49;;;;;;;0.00;0.00;;;14.40;99.90;;;;;;5093578;28;20657;-64
2023/07/26 05:33:15;;;;;;;0.00;0.00;;;14.40;99.90;;;;;;5093205;28;20227;-64
2023/07/26 05:35:41;;;;;;;0.00;0.00;;;14.30;99.90;;;;;;5093650;28;20179;-64
2023/07/26 05:38:06;;;;;;;0.00;0.00;;;14.30;99.90;;;;;;5093318;28;20176;-64
2023/07/26 05:40:32;;;;;;;0.00;0.00;;;14.30;99.90;;;;;;5092572;28;20196;-65
2023/07/26 05:42:58;;;;;;;0.00;0.00;;;14.30;99.90;;;;;;5093249;28;20258;-64
2023/07/26 05:45:23;;;;;;;0.00;0.00;;;14.30;99.90;;;;;;5092267;28;20171;-64
2023/07/26 05:47:49;;;;;;;0.00;0.00;;;14.30;99.90;;;;;;5093271;28;20550;-64
2023/07/26 05:50:14;;;;;;;0.00;0.00;;;14.30;99.90;;;;;;5091878;28;20160;-64
2023/07/26 05:52:40;;;;;;;0.00;0.00;;;14.30;99.90;;;;;;5092940;28;20200;-65
2023/07/26 05:55:07;;;;;;;0.00;0.00;;;14.30;99.90;;;;;;5092772;28;20230;-65
2023/07/26 05:57:32;;;;;;;0.00;0.00;;;14.30;99.90;;;;;;5091429;28;20206;-65
2023/07/26 05:59:58;;;;;;;0.00;0.00;;;14.30;99.90;;;;;;5092317;28;20204;-65
2023/07/26 06:02:23;;;;;;;0.00;0.00;;;14.20;99.90;;;;;;5092822;28;20183;-64
2023/07/26 06:04:49;;;;;;;0.00;0.00;;;14.20;99.90;;;;;;5092444;28;20226;-65
2023/07/26 06:07:16;;;;;;;0.00;0.00;;;14.20;99.90;;;;;;5092613;28;20681;-65
2023/07/26 06:09:44;;;;;;;0.10;0.10;;;14.10;99.90;;;;;;5092546;28;20497;-65
2023/07/26 06:12:10;;;;;;;0.00;0.00;;;14.10;99.90;;;;;;5092537;28;20249;-64
2023/07/26 06:14:36;;;;;;;0.20;0.20;;;14.10;99.90;;;;;;5092863;28;20584;-65
2023/07/26 06:17:02;;;;;;;0.13;0.13;;;14.20;99.90;;;;;;5091538;28;20191;-64
2023/07/26 06:19:27;;;;;;;0.00;0.00;;;14.20;99.90;;;;;;5092739;28;20180;-65
2023/07/26 06:21:55;;;;;;;0.00;0.00;;;14.30;99.90;;;;;;5092324;28;20172;-65
2023/07/26 06:24:22;;;;;;;0.00;0.00;;;14.30;99.90;;;;;;5092370;28;20206;-65
2023/07/26 06:26:48;;;;;;;0.00;0.00;;;14.40;99.90;;;;;;5092472;28;20172;-65
2023/07/26 06:29:13;;;;;;;0.00;0.00;;;14.40;99.90;;;;;;5092075;28;20265;-65
2023/07/26 06:31:39;;;;;;;0.00;0.00;;;14.50;99.90;;;;;;5083969;28;20180;-65
2023/07/26 06:34:05;;;;;;;0.00;0.00;;;14.60;99.90;;;;;;5092252;28;20216;-65
2023/07/26 06:36:30;;;;;;;0.00;0.00;;;14.70;99.90;;;;;;5091553;28;20757;-64
2023/07/26 06:38:56;;;;;;;0.00;0.00;;;14.80;99.90;;;;;;5090603;28;20180;-65
2023/07/26 06:41:21;;;;;;;0.00;0.00;;;14.80;99.90;;;;;;5090669;28;20168;-65
2023/07/26 06:43:47;;;;;;;0.00;0.00;;;14.80;99.90;;;;;;5091842;28;20176;-65
2023/07/26 06:46:12;;;;;;;0.00;0.00;;;14.90;99.90;;;;;;5092171;28;20229;-65
2023/07/26 06:48:38;;;;;;;0.00;0.00;;;14.80;99.90;;;;;;5092396;28;20196;-65
2023/07/26 06:51:04;;;;;;;0.00;0.00;;;14.80;99.90;;;;;;5091337;28;20245;-64
2023/07/26 06:53:30;;;;;;;0.00;0.00;;;14.70;99.90;;;;;;5091370;28;20522;-65
2023/07/26 06:56:00;;;;;;;0.00;0.00;;;14.60;99.90;;;;;;5091696;28;20206;-64
2023/07/26 06:58:26;;;;;;;0.00;0.00;;;14.50;99.90;;;;;;5090669;28;20172;-64
2023/07/26 07:00:52;;;;;;;0.22;0.15;;;14.50;99.90;;;;;;5092091;28;20213;-64
2023/07/26 07:03:18;;;;;;;0.10;0.10;;;14.40;99.90;;;;;;5091670;28;20245;-64
2023/07/26 07:05:43;;;;;;;0.00;0.00;;;14.40;99.90;;;;;;5091973;28;20164;-64
2023/07/26 07:08:09;;;;;;;0.00;0.00;;;14.40;99.90;;;;;;5091325;28;20219;-63
2023/07/26 07:10:34;;;;;;;0.00;0.00;;;14.30;99.90;;;;;;5092119;28;20183;-64
2023/07/26 07:13:00;;;;;;;0.00;0.00;;;14.30;99.90;;;;;;5091995;28;20234;-63
2023/07/26 07:15:25;;;;;;;0.00;0.00;;;14.30;99.90;;;;;;5091577;28;20246;-63
2023/07/26 07:17:51;;;;;;;0.00;0.00;;;14.30;99.90;;;;;;5092102;28;20172;-63
2023/07/26 07:20:16;;;;;;;0.30;0.05;;;14.30;99.90;;;;;;5091864;28;20172;-64
2023/07/26 07:22:42;;;;;;;0.00;0.00;;;14.40;99.90;;;;;;5091809;28;20201;-63
2023/07/26 07:25:08;;;;;;;0.00;0.00;;;14.40;99.90;;;;;;5091625;28;20643;-64
2023/07/26 07:27:34;;;;;;;0.00;0.00;;;14.50;99.90;;;;;;5089467;28;20231;-64
2023/07/26 07:29:59;;;;;;;0.00;0.00;;;14.60;99.90;;;;;;5089304;28;20172;-64
2023/07/26 07:32:25;;;;;;;0.00;0.00;;;14.60;99.90;;;;;;5081793;28;20211;-64
2023/07/26 07:34:51;;;;;;;0.00;0.00;;;14.70;99.90;;;;;;5084495;28;20631;-64
2023/07/26 07:37:16;;;;;;;0.00;0.00;;;14.70;99.90;;;;;;5090009;28;20253;-64
2023/07/26 07:39:42;;;;;;;0.00;0.00;;;14.80;99.90;;;;;;5091142;28;20176;-64
2023/07/26 07:42:07;;;;;;;0.10;0.10;;;14.80;99.90;;;;;;5091109;28;20192;-64
2023/07/26 07:44:33;;;;;;;0.20;0.03;;;14.80;99.90;;;;;;5091675;28;20172;-63
2023/07/26 07:46:58;;;;;;;0.00;0.00;;;14.80;99.90;;;;;;5091520;28;20189;-64
2023/07/26 07:49:24;;;;;;;0.00;0.00;;;14.80;99.90;;;;;;5091349;28;20177;-64
2023/07/26 07:51:50;;;;;;;0.20;0.15;;;14.90;99.90;;;;;;5089589;28;20516;-64
2023/07/26 07:54:16;;;;;;;0.00;0.00;;;14.90;99.90;;;;;;5091012;28;20682;-64
2023/07/26 07:56:42;;;;;;;0.05;0.05;;;15.00;99.90;;;;;;5090961;28;20177;-64
2023/07/26 07:59:07;;;;;;;0.00;0.00;;;15.10;99.90;;;;;;5091203;28;20184;-64
2023/07/26 08:01:33;;;;;;;0.00;0.00;;;15.30;99.90;;;;;;5091056;28;20169;-65
2023/07/26 08:03:59;;;;;;;0.00;0.00;;;15.40;99.90;;;;;;5091270;28;20180;-64
2023/07/26 08:06:25;;;;;;;0.20;0.20;;;15.50;99.90;;;;;;5091217;28;20172;-64
2023/07/26 08:08:51;;;;;;;0.30;0.30;;;15.70;99.90;;;;;;5089776;28;20202;-64
2023/07/26 08:11:17;;;;;;;0.10;0.10;;;15.90;99.90;;;;;;5091253;28;20208;-64
2023/07/26 08:13:43;;;;;;;0.30;0.22;;;16.10;99.90;;;;;;5091070;28;20866;-64
2023/07/26 08:16:08;;;;;;;0.00;0.00;;;16.20;99.90;;;;;;5090624;28;20183;-65
2023/07/26 08:18:34;;;;;;;0.00;0.00;;;16.20;99.90;;;;;;5091219;28;20161;-64
2023/07/26 08:21:00;;;;;;;0.20;0.20;;;16.40;99.90;;;;;;5091114;28;20176;-64
2023/07/26 08:23:26;;;;;;;0.00;0.00;;;16.50;99.90;;;;;;5090997;28;20183;-64
2023/07/26 08:25:52;;;;;;;0.00;0.00;;;16.60;99.90;;;;;;5090135;28;20167;-64
2023/07/26 08:28:17;;;;;;;0.00;0.00;;;16.70;99.90;;;;;;5090602;28;20223;-65
2023/07/26 08:30:43;;;;;;;0.00;0.00;;;16.80;99.90;;;;;;5090654;28;20172;-65
2023/07/26 08:33:08;;;;;;;0.00;0.00;;;17.10;99.90;;;;;;5080534;28;20227;-65
2023/07/26 08:35:34;;;;;;;0.00;0.00;;;17.20;99.90;;;;;;5070911;28;20180;-65
2023/07/26 08:37:59;;;;;;;0.08;0.08;;;17.30;99.90;;;;;;5070854;28;20650;-66
2023/07/26 08:40:25;;;;;;;0.00;0.00;;;17.20;99.90;;;;;;5084669;28;20258;-65
2023/07/26 08:42:51;;;;;;;0.00;0.00;;;17.10;99.90;;;;;;5094884;28;20184;-65
2023/07/26 08:45:17;;;;;;;0.00;0.00;;;17.00;99.90;;;;;;5094959;28;20187;-65
2023/07/26 08:47:43;;;;;;;0.00;0.00;;;16.90;99.90;;;;;;5095140;28;20168;-65
2023/07/26 08:50:09;;;;;;;0.00;0.00;;;17.00;99.90;;;;;;5094857;28;20169;-65
2023/07/26 08:52:37;;;;;;;0.20;0.20;;;17.00;99.90;;;;;;5093805;28;20204;-65
2023/07/26 08:55:02;;;;;;;0.00;0.00;;;17.20;99.90;;;;;;5095078;28;20176;-66
2023/07/26 08:57:29;;;;;;;0.00;0.00;;;17.30;99.90;;;;;;5094502;28;20171;-65
2023/07/26 08:59:54;;;;;;;0.00;0.00;;;17.20;99.90;;;;;;5094437;28;20176;-65
2023/07/26 09:02:21;;;;;;;0.00;0.00;;;17.20;99.90;;;;;;5093902;28;20172;-65
2023/07/26 09:04:47;;;;;;;0.00;0.00;;;17.10;99.90;;;;;;5094281;28;20336;-65
2023/07/26 09:07:14;;;;;;;0.00;0.00;;;17.00;99.90;;;;;;5093877;28;20187;-65
2023/07/26 09:09:40;;;;;;;0.00;0.00;;;16.90;99.90;;;;;;5093760;28;20524;-62
2023/07/26 09:12:06;;;;;;;0.00;0.00;;;16.80;99.90;;;;;;5101400;28;20176;-64
2023/07/26 09:14:33;;;;;;;0.00;0.00;;;16.80;99.90;;;;;;5094152;28;20204;-64
2023/07/26 09:17:01;;;;;;;0.00;0.00;;;17.00;99.90;;;;;;5094318;28;20172;-64
2023/07/26 09:19:31;;;;;;;0.00;0.00;;;17.20;99.90;;;;;;5094305;28;20249;-65
2023/07/26 09:21:59;;;;;;;0.00;0.00;;;17.40;99.90;;;;;;5094311;28;20172;-64
2023/07/26 09:24:35;;;;;;;0.00;0.00;;;17.50;99.90;;;;;;5094295;28;20179;-64
2023/07/26 09:27:11;;;;;;;0.00;0.00;;;17.40;99.90;;;;;;5094119;28;20178;-66
2023/07/26 09:29:39;;;;;;;0.00;0.00;;;17.50;99.90;;;;;;5094289;28;20180;-64
2023/07/26 09:32:05;;;;;;;0.00;0.00;;;17.40;99.90;;;;;;5094130;28;20208;-64
2023/07/26 09:34:31;;;;;;;0.00;0.00;;;17.40;99.90;;;;;;5093984;28;20230;-63
2023/07/26 09:36:58;;;;;;;0.00;0.00;;;17.10;99.90;;;;;;5094165;28;20172;-63
2023/07/26 09:39:25;;;;;;;0.00;0.00;;;16.80;99.90;;;;;;5093191;28;20176;-65
2023/07/26 09:42:06;;;;;;;0.00;0.00;;;16.60;99.90;;;;;;5092677;28;20616;-65
2023/07/26 09:44:32;;;;;;;0.00;0.00;;;16.70;99.90;;;;;;5091806;28;20176;-66
2023/07/26 09:46:58;;;;;;;0.00;0.00;;;17.40;99.90;;;;;;5093423;28;20704;-64
2023/07/26 09:49:26;;;;;;;0.00;0.00;;;18.00;99.90;;;;;;5093573;28;20218;-62
2023/07/26 09:51:57;;;;;;;0.00;0.00;;;18.20;99.90;;;;;;5092853;28;20179;-65
2023/07/26 09:54:28;;;;;;;0.00;0.00;;;18.50;99.90;;;;;;5093426;28;20207;-64
2023/07/26 09:56:55;;;;;;;0.00;0.00;;;19.10;99.90;;;;;;5093083;28;20186;-61
2023/07/26 09:59:23;;;;;;;0.00;0.00;;;19.30;99.90;;;;;;5093335;28;20173;-64
2023/07/26 10:01:50;;;;;;;0.00;0.00;;;19.60;99.90;;;;;;5092823;28;20188;-62
2023/07/26 10:04:21;;;;;;;0.00;0.00;;;20.00;99.90;;;;;;5093284;28;20236;-63
2023/07/26 10:06:48;;;;;;;0.00;0.00;;;20.30;99.90;;;;;;5092783;28;20207;-63
2023/07/26 10:09:16;;;;;;;0.00;0.00;;;20.40;99.90;;;;;;5093181;28;20230;-63
2023/07/26 10:11:43;;;;;;;0.00;0.00;;;20.70;99.90;;;;;;5093286;28;20535;-63
2023/07/26 10:14:12;;;;;;;0.00;0.00;;;21.40;99.90;;;;;;5092058;28;20207;-64
2023/07/26 10:16:39;;;;;;;0.00;0.00;;;21.70;99.90;;;;;;5093132;28;20254;-63
2023/07/26 10:19:06;;;;;;;0.00;0.00;;;21.60;99.40;;;;;;5093449;28;20180;-61
2023/07/26 10:21:34;;;;;;;0.00;0.00;;;21.10;99.00;;;;;;5092898;28;20587;-62
2023/07/26 10:24:02;;;;;;;0.00;0.00;;;20.80;99.90;;;;;;5093296;28;20267;-64
2023/07/26 10:26:32;;;;;;;0.00;0.00;;;20.50;99.90;;;;;;5092566;28;20176;-64
2023/07/26 10:28:59;;;;;;;0.00;0.00;;;20.20;99.90;;;;;;5092175;28;20235;-63
2023/07/26 10:31:31;;;;;;;0.00;0.00;;;20.10;99.90;;;;;;5092188;28;20175;-64
2023/07/26 10:33:57;;;;;;;0.00;0.00;;;19.90;99.90;;;;;;5084179;28;20218;-62
2023/07/26 10:36:33;;;;;;;0.00;0.00;;;19.40;99.90;;;;;;5091733;28;20180;-62
2023/07/26 10:39:11;;;;;;;0.00;0.00;;;19.10;99.90;;;;;;5091604;28;20638;-62
2023/07/26 10:41:46;;;;;;;0.10;0.10;;;19.30;99.90;;;;;;5092292;28;20255;-63
2023/07/26 10:44:12;;;;;;;0.08;0.08;;;19.50;99.90;;;;;;5091945;28;20724;-63
2023/07/26 10:46:49;;;;;;;0.00;0.00;;;20.20;99.90;;;;;;5092768;28;20176;-62
2023/07/26 10:49:26;;;;;;;0.00;0.00;;;21.10;99.90;;;;;;5092422;28;20179;-62
2023/07/26 10:51:58;;;;;;;0.00;0.00;;;21.80;99.10;;;;;;5092773;28;20205;-64
2023/07/26 10:54:35;;;;;;;0.00;0.00;;;22.00;97.80;;;;;;5092237;28;20219;-64
2023/07/26 10:57:28;;;;;;;0.00;0.00;;;22.20;98.60;;;;;;5092400;28;20183;-62
2023/07/26 10:59:57;;;;;;;0.00;0.00;;;22.30;95.80;;;;;;5092672;28;20177;-64
2023/07/26 11:02:43;;;;;;;0.10;0.10;;;22.20;96.20;;;;;;5091204;28;20239;-62
2023/07/26 11:05:17;;;;;;;0.00;0.00;;;22.20;96.30;;;;;;5092117;28;20180;-62
2023/07/26 11:07:58;;;;;;;0.00;0.00;;;22.50;96.40;;;;;;5092454;28;20176;-62
2023/07/26 11:10:32;;;;;;;0.00;0.00;;;22.50;94.30;;;;;;5092513;28;20180;-62
2023/07/26 11:13:10;;;;;;;0.00;0.00;;;22.30;94.20;;;;;;5092479;28;20291;-64
2023/07/26 11:15:38;;;;;;;0.00;0.00;;;22.10;95.10;;;;;;5092399;28;20172;-64
2023/07/26 11:18:04;;;;;;;0.05;0.05;;;21.60;94.70;;;;;;5092362;28;20233;-64
2023/07/26 11:20:30;;;;;;;0.00;0.00;;;21.60;95.20;;;;;;5091651;28;20199;-63
2023/07/26 11:22:55;;;;;;;0.00;0.00;;;21.70;94.60;;;;;;5091823;28;20644;-64
2023/07/26 11:25:21;;;;;;;0.00;0.00;;;21.30;95.30;;;;;;5091644;28;20226;-64
2023/07/26 11:27:48;;;;;;;0.00;0.00;;;21.00;95.20;;;;;;5091879;28;20212;-64
2023/07/26 11:30:18;;;;;;;0.00;0.00;;;21.10;96.30;;;;;;5092105;28;20199;-64
2023/07/26 11:32:45;;;;;;;0.00;0.00;;;21.50;96.40;;;;;;5081462;28;20255;-64
2023/07/26 11:35:11;;;;;;;0.00;0.00;;;21.80;96.80;;;;;;5090105;28;20200;-66
2023/07/26 11:37:37;;;;;;;0.00;0.00;;;22.10;95.60;;;;;;5091979;28;20200;-62
2023/07/26 11:40:09;;;;;;;0.00;0.00;;;22.20;94.70;;;;;;5091482;28;20184;-64
2023/07/26 11:42:35;;;;;;;0.00;0.00;;;22.20;93.80;;;;;;5091644;28;20172;-64
2023/07/26 11:45:05;;;;;;;0.00;0.00;;;22.00;93.60;;;;;;5091467;28;20176;-63
2023/07/26 11:47:35;;;;;;;0.00;0.00;;;21.50;94.10;;;;;;5091531;28;20924;-64
2023/07/26 11:50:04;;;;;;;0.00;0.00;;;21.20;94.70;;;;;;5090340;28;20207;-64
2023/07/26 11:52:30;;;;;;;0.00;0.00;;;21.10;95.80;;;;;;5091202;28;20183;-64
2023/07/26 11:55:00;;;;;;;0.00;0.00;;;21.10;96.10;;;;;;5091550;28;20185;-65
2023/07/26 11:57:27;;;;;;;0.10;0.10;;;21.30;96.30;;;;;;5091440;28;20164;-64
2023/07/26 12:00:00;;;;;;;0.00;0.00;;;21.70;95.30;;;;;;5091499;28;20631;-64
2023/07/26 12:02:26;;;;;;;0.00;0.00;;;22.10;94.60;;;;;;5091324;28;20164;-64
2023/07/26 12:05:13;;;;;;;0.00;0.00;;;22.10;93.20;;;;;;5089986;28;20639;-64
2023/07/26 12:07:44;;;;;;;0.00;0.00;;;22.10;92.90;;;;;;5091402;28;20171;-64
2023/07/26 12:10:09;;;;;;;0.00;0.00;;;21.90;92.90;;;;;;5090933;28;20172;-65
2023/07/26 12:12:43;;;;;;;0.00;0.00;;;21.50;92.00;;;;;;5090947;28;20200;-64
2023/07/26 12:15:09;;;;;;;0.00;0.00;;;21.40;93.40;;;;;;5089355;28;20186;-66
2023/07/26 12:17:35;;;;;;;0.00;0.00;;;21.30;93.50;;;;;;5091194;28;20633;-65
2023/07/26 12:20:06;;;;;;;0.00;0.00;;;21.10;93.50;;;;;;5091303;28;20191;-64
2023/07/26 12:22:32;;;;;;;0.00;0.00;;;20.90;94.60;;;;;;5098592;28;20229;-65
2023/07/26 12:25:02;;;;;;;0.00;0.00;;;20.70;94.20;;;;;;5105424;28;20187;-65
2023/07/26 12:27:33;;;;;;;0.00;0.00;;;20.50;95.40;;;;;;5091069;28;20307;-64
2023/07/26 12:29:59;;;;;;;0.00;0.00;;;20.10;95.90;;;;;;5070830;28;20184;-64
2023/07/26 12:32:25;;;;;;;0.00;0.00;;;19.70;96.70;;;;;;5076876;28;20622;-64
2023/07/26 12:34:50;;;;;;;0.00;0.00;;;19.50;97.50;;;;;;5087712;28;20548;-64
2023/07/26 12:37:16;;;;;;;0.00;0.00;;;19.30;97.70;;;;;;5093301;28;20510;-65
2023/07/26 12:39:42;;;;;;;0.00;0.00;;;19.20;98.20;;;;;;5090827;28;20226;-67
2023/07/26 12:42:08;;;;;;;0.00;0.00;;;19.10;98.50;;;;;;5085708;28;20184;-65
2023/07/26 12:44:34;;;;;;;0.00;0.00;;;19.20;98.60;;;;;;5089717;28;20180;-64
2023/07/26 12:47:00;;;;;;;0.00;0.00;;;19.80;98.20;;;;;;5089924;28;20190;-64